sensor_id;sensor_type;location;lat;lon;timestamp;pressure;altitude;pressure_sealevel;temperature;humidity
61742;BME280;47650;49.848;9.620;2022-12-31T00:02:00;99068.66;;;14.07;78.40
61742;BME280;47650;49.848;9.620;2022-12-31T00:04:27;99076.03;;;14.35;77.30
61742;BME280;47650;49.848;9.620;2022-12-31T00:06:52;99079.06;;;14.32;77.92
61742;BME280;47650;49.848;9.620;2022-12-31T00:09:17;99071.44;;;14.29;77.56
61742;BME280;47650;49.848;9.620;2022-12-31T00:11:42;99092.09;;;14.12;78.64
61742;BME280;47650;49.848;9.620;2022-12-31T00:14:08;99070.72;;;14.35;77.20
61742;BME280;47650;49.848;9.620;2022-12-31T00:16:37;99092.59;;;14.45;77.04
61742;BME280;47650;49.848;9.620;2022-12-31T00:19:08;99081.38;;;14.35;77.09
61742;BME280;47650;49.848;9.620;2022-12-31T00:21:35;99086.53;;;14.52;76.52
61742;BME280;47650;49.848;9.620;2022-12-31T00:24:02;99097.06;;;14.68;76.21
61742;BME280;47650;49.848;9.620;2022-12-31T00:26:31;99095.72;;;14.34;77.09
61742;BME280;47650;49.848;9.620;2022-12-31T00:28:58;99106.72;;;14.69;75.76
61742;BME280;47650;49.848;9.620;2022-12-31T00:31:26;99099.81;;;14.60;75.92
61742;BME280;47650;49.848;9.620;2022-12-31T00:33:53;99122.47;;;14.64;75.98
61742;BME280;47650;49.848;9.620;2022-12-31T00:36:27;99105.13;;;14.60;75.95
61742;BME280;47650;49.848;9.620;2022-12-31T00:38:54;99110.00;;;14.56;76.21
61742;BME280;47650;49.848;9.620;2022-12-31T00:41:24;99111.31;;;14.60;75.97
61742;BME280;47650;49.848;9.620;2022-12-31T00:43:50;99106.31;;;14.57;76.32
61742;BME280;47650;49.848;9.620;2022-12-31T00:46:16;99118.66;;;14.58;76.21
61742;BME280;47650;49.848;9.620;2022-12-31T00:48:43;99103.84;;;14.56;75.71
61742;BME280;47650;49.848;9.620;2022-12-31T00:51:10;99110.31;;;14.76;75.29
61742;BME280;47650;49.848;9.620;2022-12-31T00:53:36;99087.81;;;14.56;75.13
61742;BME280;47650;49.848;9.620;2022-12-31T00:56:09;99110.94;;;14.63;75.26
61742;BME280;47650;49.848;9.620;2022-12-31T00:58:35;99109.66;;;14.74;75.27
61742;BME280;47650;49.848;9.620;2022-12-31T01:01:12;99100.44;;;14.77;74.87
61742;BME280;47650;49.848;9.620;2022-12-31T01:03:38;99120.69;;;15.01;74.42
61742;BME280;47650;49.848;9.620;2022-12-31T01:06:04;99113.41;;;14.65;74.90
61742;BME280;47650;49.848;9.620;2022-12-31T01:08:31;99120.44;;;14.66;75.58
61742;BME280;47650;49.848;9.620;2022-12-31T01:10:56;99127.59;;;14.80;75.28
61742;BME280;47650;49.848;9.620;2022-12-31T01:13:41;99138.75;;;14.69;75.12
61742;BME280;47650;49.848;9.620;2022-12-31T01:16:12;99137.72;;;14.85;74.69
61742;BME280;47650;49.848;9.620;2022-12-31T01:18:38;99144.53;;;14.88;74.90
61742;BME280;47650;49.848;9.620;2022-12-31T01:21:06;99126.88;;;14.87;74.64
61742;BME280;47650;49.848;9.620;2022-12-31T01:23:32;99155.75;;;14.98;74.07
61742;BME280;47650;49.848;9.620;2022-12-31T01:26:03;99147.50;;;14.78;75.57
61742;BME280;47650;49.848;9.620;2022-12-31T01:28:29;99160.16;;;14.61;75.99
61742;BME280;47650;49.848;9.620;2022-12-31T01:30:55;99168.16;;;14.76;76.26
61742;BME280;47650;49.848;9.620;2022-12-31T01:33:21;99175.56;;;14.51;76.86
61742;BME280;47650;49.848;9.620;2022-12-31T01:35:46;99177.25;;;14.28;78.30
61742;BME280;47650;49.848;9.620;2022-12-31T01:38:12;99164.44;;;14.47;77.51
61742;BME280;47650;49.848;9.620;2022-12-31T01:40:39;99159.81;;;14.64;77.00
61742;BME280;47650;49.848;9.620;2022-12-31T01:43:14;99178.66;;;14.62;77.43
61742;BME280;47650;49.848;9.620;2022-12-31T01:45:40;99158.59;;;14.66;77.53
61742;BME280;47650;49.848;9.620;2022-12-31T01:48:07;99167.84;;;14.56;77.12
61742;BME280;47650;49.848;9.620;2022-12-31T01:50:36;99148.72;;;14.52;77.69
61742;BME280;47650;49.848;9.620;2022-12-31T01:53:06;99149.31;;;14.77;76.00
61742;BME280;47650;49.848;9.620;2022-12-31T01:55:36;99177.03;;;14.53;77.66
61742;BME280;47650;49.848;9.620;2022-12-31T01:58:13;99137.44;;;14.65;77.14
61742;BME280;47650;49.848;9.620;2022-12-31T02:00:39;99161.00;;;14.76;76.65
61742;BME280;47650;49.848;9.620;2022-12-31T02:03:05;99167.91;;;14.85;77.05
61742;BME280;47650;49.848;9.620;2022-12-31T02:05:36;99180.31;;;14.78;76.85
61742;BME280;47650;49.848;9.620;2022-12-31T02:08:05;99165.59;;;14.82;76.43
61742;BME280;47650;49.848;9.620;2022-12-31T02:10:31;99174.91;;;14.87;76.17
61742;BME280;47650;49.848;9.620;2022-12-31T02:12:56;99186.66;;;14.77;76.52
61742;BME280;47650;49.848;9.620;2022-12-31T02:15:46;99175.72;;;14.87;76.10
61742;BME280;47650;49.848;9.620;2022-12-31T02:18:22;99168.38;;;14.74;76.28
61742;BME280;47650;49.848;9.620;2022-12-31T02:21:10;99201.22;;;14.90;75.81
61742;BME280;47650;49.848;9.620;2022-12-31T02:26:36;99195.25;;;15.02;74.80
61742;BME280;47650;49.848;9.620;2022-12-31T02:32:33;99207.28;;;15.43;72.93
61742;BME280;47650;49.848;9.620;2022-12-31T02:35:27;99202.59;;;15.15;73.34
61742;BME280;47650;49.848;9.620;2022-12-31T02:37:58;99222.75;;;15.03;73.37
61742;BME280;47650;49.848;9.620;2022-12-31T02:40:35;99205.09;;;15.17;72.30
61742;BME280;47650;49.848;9.620;2022-12-31T02:43:02;99185.34;;;15.33;70.78
61742;BME280;47650;49.848;9.620;2022-12-31T02:45:37;99185.16;;;15.49;70.29
61742;BME280;47650;49.848;9.620;2022-12-31T03:01:25;99176.78;;;15.74;67.04
61742;BME280;47650;49.848;9.620;2022-12-31T03:04:11;99186.25;;;15.55;67.43
61742;BME280;47650;49.848;9.620;2022-12-31T03:06:58;99166.19;;;15.44;67.50
61742;BME280;47650;49.848;9.620;2022-12-31T03:09:24;99178.03;;;15.56;66.96
61742;BME280;47650;49.848;9.620;2022-12-31T03:11:49;99173.25;;;15.88;65.96
61742;BME280;47650;49.848;9.620;2022-12-31T03:14:33;99175.69;;;16.05;65.93
61742;BME280;47650;49.848;9.620;2022-12-31T03:16:58;99188.47;;;15.51;67.11
61742;BME280;47650;49.848;9.620;2022-12-31T03:19:23;99193.00;;;15.87;66.62
61742;BME280;47650;49.848;9.620;2022-12-31T03:22:11;99182.94;;;15.89;66.25
61742;BME280;47650;49.848;9.620;2022-12-31T03:25:00;99188.06;;;16.06;65.79
61742;BME280;47650;49.848;9.620;2022-12-31T03:27:44;99150.59;;;15.63;66.24
61742;BME280;47650;49.848;9.620;2022-12-31T03:30:14;99190.25;;;15.66;66.73
61742;BME280;47650;49.848;9.620;2022-12-31T03:32:40;99184.09;;;15.80;66.35
61742;BME280;47650;49.848;9.620;2022-12-31T03:35:06;99190.53;;;15.86;66.65
61742;BME280;47650;49.848;9.620;2022-12-31T03:37:33;99189.00;;;15.61;67.07
61742;BME280;47650;49.848;9.620;2022-12-31T03:40:08;99168.88;;;15.66;66.42
61742;BME280;47650;49.848;9.620;2022-12-31T03:42:36;99185.75;;;16.03;65.70
61742;BME280;47650;49.848;9.620;2022-12-31T03:45:04;99189.56;;;15.93;66.21
61742;BME280;47650;49.848;9.620;2022-12-31T03:47:31;99186.78;;;15.80;66.83
61742;BME280;47650;49.848;9.620;2022-12-31T03:49:57;99188.63;;;15.65;67.06
61742;BME280;47650;49.848;9.620;2022-12-31T03:52:22;99192.94;;;15.66;67.29
61742;BME280;47650;49.848;9.620;2022-12-31T03:54:48;99168.22;;;15.42;67.35
61742;BME280;47650;49.848;9.620;2022-12-31T03:57:13;99196.22;;;15.46;67.81
61742;BME280;47650;49.848;9.620;2022-12-31T03:59:39;99187.56;;;15.44;67.86
61742;BME280;47650;49.848;9.620;2022-12-31T04:02:04;99183.47;;;15.78;66.84
61742;BME280;47650;49.848;9.620;2022-12-31T04:04:29;99183.31;;;15.86;66.50
61742;BME280;47650;49.848;9.620;2022-12-31T04:06:55;99188.53;;;15.73;66.65
61742;BME280;47650;49.848;9.620;2022-12-31T04:09:20;99194.25;;;15.55;67.44
61742;BME280;47650;49.848;9.620;2022-12-31T04:11:46;99179.19;;;15.69;67.38
61742;BME280;47650;49.848;9.620;2022-12-31T04:14:12;99184.66;;;15.75;66.99
61742;BME280;47650;49.848;9.620;2022-12-31T04:16:38;99187.31;;;15.60;67.20
61742;BME280;47650;49.848;9.620;2022-12-31T04:19:03;99182.50;;;15.86;66.53
61742;BME280;47650;49.848;9.620;2022-12-31T04:21:29;99181.94;;;16.12;65.75
61742;BME280;47650;49.848;9.620;2022-12-31T04:24:02;99184.16;;;16.08;65.31
61742;BME280;47650;49.848;9.620;2022-12-31T04:26:28;99144.81;;;15.44;66.40
61742;BME280;47650;49.848;9.620;2022-12-31T04:28:54;99170.63;;;15.73;66.19
61742;BME280;47650;49.848;9.620;2022-12-31T04:31:19;99195.94;;;15.92;66.19
61742;BME280;47650;49.848;9.620;2022-12-31T04:33:44;99198.88;;;15.97;65.94
61742;BME280;47650;49.848;9.620;2022-12-31T04:36:10;99182.56;;;16.14;65.32
61742;BME280;47650;49.848;9.620;2022-12-31T04:38:35;99193.75;;;16.24;65.02
61742;BME280;47650;49.848;9.620;2022-12-31T04:41:00;99194.28;;;16.13;64.89
61742;BME280;47650;49.848;9.620;2022-12-31T04:43:49;99170.72;;;15.80;65.77
61742;BME280;47650;49.848;9.620;2022-12-31T04:46:18;99203.88;;;16.07;65.31
61742;BME280;47650;49.848;9.620;2022-12-31T04:48:46;99206.78;;;16.06;65.45
61742;BME280;47650;49.848;9.620;2022-12-31T04:51:12;99182.50;;;15.86;65.67
61742;BME280;47650;49.848;9.620;2022-12-31T04:53:38;99211.88;;;16.01;65.89
61742;BME280;47650;49.848;9.620;2022-12-31T04:56:06;99206.25;;;15.95;66.01
61742;BME280;47650;49.848;9.620;2022-12-31T04:58:32;99218.09;;;16.08;65.50
61742;BME280;47650;49.848;9.620;2022-12-31T05:00:58;99218.44;;;16.20;65.28
61742;BME280;47650;49.848;9.620;2022-12-31T05:03:24;99201.09;;;15.94;65.36
61742;BME280;47650;49.848;9.620;2022-12-31T05:05:50;99168.44;;;16.20;64.95
61742;BME280;47650;49.848;9.620;2022-12-31T05:08:16;99218.28;;;16.06;65.59
61742;BME280;47650;49.848;9.620;2022-12-31T05:10:44;99219.47;;;16.47;64.21
61742;BME280;47650;49.848;9.620;2022-12-31T05:13:11;99206.00;;;16.33;64.62
61742;BME280;47650;49.848;9.620;2022-12-31T05:15:37;99217.72;;;16.32;64.78
61742;BME280;47650;49.848;9.620;2022-12-31T05:18:02;99204.16;;;16.34;64.26
61742;BME280;47650;49.848;9.620;2022-12-31T05:20:28;99188.59;;;16.23;64.69
61742;BME280;47650;49.848;9.620;2022-12-31T05:22:54;99223.63;;;16.49;64.08
61742;BME280;47650;49.848;9.620;2022-12-31T05:25:19;99216.84;;;16.25;64.94
61742;BME280;47650;49.848;9.620;2022-12-31T05:27:44;99200.22;;;16.58;64.09
61742;BME280;47650;49.848;9.620;2022-12-31T05:30:10;99209.19;;;16.44;64.38
61742;BME280;47650;49.848;9.620;2022-12-31T05:32:36;99232.69;;;16.27;64.78
61742;BME280;47650;49.848;9.620;2022-12-31T05:35:02;99224.59;;;16.20;65.21
61742;BME280;47650;49.848;9.620;2022-12-31T05:37:28;99229.75;;;16.43;64.33
61742;BME280;47650;49.848;9.620;2022-12-31T05:40:04;99243.97;;;16.22;65.35
61742;BME280;47650;49.848;9.620;2022-12-31T05:42:29;99236.81;;;16.51;64.49
61742;BME280;47650;49.848;9.620;2022-12-31T05:44:55;99221.75;;;16.22;64.77
61742;BME280;47650;49.848;9.620;2022-12-31T05:47:25;99228.41;;;16.32;65.09
61742;BME280;47650;49.848;9.620;2022-12-31T05:49:50;99250.19;;;16.29;65.14
61742;BME280;47650;49.848;9.620;2022-12-31T05:52:16;99257.59;;;16.27;65.51
61742;BME280;47650;49.848;9.620;2022-12-31T05:54:41;99247.66;;;16.43;64.80
61742;BME280;47650;49.848;9.620;2022-12-31T05:57:06;99230.53;;;16.37;64.55
61742;BME280;47650;49.848;9.620;2022-12-31T05:59:32;99219.47;;;16.68;63.50
61742;BME280;47650;49.848;9.620;2022-12-31T06:01:58;99260.53;;;16.32;64.89
61742;BME280;47650;49.848;9.620;2022-12-31T06:04:31;99245.03;;;16.49;64.55
61742;BME280;47650;49.848;9.620;2022-12-31T06:06:56;99235.69;;;16.17;64.91
61742;BME280;47650;49.848;9.620;2022-12-31T06:09:22;99258.84;;;16.31;65.13
61742;BME280;47650;49.848;9.620;2022-12-31T06:11:47;99241.13;;;16.73;63.63
61742;BME280;47650;49.848;9.620;2022-12-31T06:14:13;99271.06;;;16.62;64.02
61742;BME280;47650;49.848;9.620;2022-12-31T06:16:39;99258.19;;;16.72;63.55
61742;BME280;47650;49.848;9.620;2022-12-31T06:19:05;99263.16;;;16.54;64.43
61742;BME280;47650;49.848;9.620;2022-12-31T06:21:30;99266.84;;;16.74;63.77
61742;BME280;47650;49.848;9.620;2022-12-31T06:23:56;99269.88;;;16.65;64.05
61742;BME280;47650;49.848;9.620;2022-12-31T06:26:23;99272.38;;;16.66;64.19
61742;BME280;47650;49.848;9.620;2022-12-31T06:28:48;99300.06;;;16.80;63.73
61742;BME280;47650;49.848;9.620;2022-12-31T06:31:14;99276.09;;;16.72;63.34
61742;BME280;47650;49.848;9.620;2022-12-31T06:33:39;99280.22;;;16.74;63.30
61742;BME280;47650;49.848;9.620;2022-12-31T06:36:07;99285.19;;;16.78;63.25
61742;BME280;47650;49.848;9.620;2022-12-31T06:38:37;99280.63;;;16.71;63.44
61742;BME280;47650;49.848;9.620;2022-12-31T06:41:03;99265.84;;;16.76;63.00
61742;BME280;47650;49.848;9.620;2022-12-31T06:43:35;99282.78;;;16.83;63.25
61742;BME280;47650;49.848;9.620;2022-12-31T06:46:03;99283.16;;;16.80;63.00
61742;BME280;47650;49.848;9.620;2022-12-31T06:48:29;99287.00;;;16.49;64.07
61742;BME280;47650;49.848;9.620;2022-12-31T06:50:55;99298.03;;;16.61;63.81
61742;BME280;47650;49.848;9.620;2022-12-31T06:53:20;99288.09;;;16.33;64.51
61742;BME280;47650;49.848;9.620;2022-12-31T06:55:49;99304.22;;;16.40;64.59
61742;BME280;47650;49.848;9.620;2022-12-31T06:58:15;99313.00;;;16.55;64.15
61742;BME280;47650;49.848;9.620;2022-12-31T07:00:48;99292.94;;;16.44;63.91
61742;BME280;47650;49.848;9.620;2022-12-31T07:03:42;99297.09;;;16.68;63.05
61742;BME280;47650;49.848;9.620;2022-12-31T07:06:28;99306.56;;;16.71;63.27
61742;BME280;47650;49.848;9.620;2022-12-31T07:09:07;99311.09;;;16.70;63.26
61742;BME280;47650;49.848;9.620;2022-12-31T07:12:01;99302.31;;;16.77;62.90
61742;BME280;47650;49.848;9.620;2022-12-31T07:14:58;99310.28;;;16.70;63.08
61742;BME280;47650;49.848;9.620;2022-12-31T07:17:40;99310.47;;;16.90;62.57
61742;BME280;47650;49.848;9.620;2022-12-31T07:20:15;99318.59;;;16.82;62.67
61742;BME280;47650;49.848;9.620;2022-12-31T07:22:42;99311.59;;;16.81;62.92
61742;BME280;47650;49.848;9.620;2022-12-31T07:25:16;99311.34;;;16.97;62.41
61742;BME280;47650;49.848;9.620;2022-12-31T07:27:59;99311.97;;;16.78;62.59
61742;BME280;47650;49.848;9.620;2022-12-31T07:35:51;99318.59;;;16.82;62.61
61742;BME280;47650;49.848;9.620;2022-12-31T07:38:31;99313.19;;;16.97;62.44
61742;BME280;47650;49.848;9.620;2022-12-31T07:44:22;99311.16;;;16.77;62.58
61742;BME280;47650;49.848;9.620;2022-12-31T07:47:03;99294.00;;;16.93;61.66
61742;BME280;47650;49.848;9.620;2022-12-31T07:49:29;99321.91;;;17.05;61.67
61742;BME280;47650;49.848;9.620;2022-12-31T07:51:55;99311.81;;;17.07;61.51
61742;BME280;47650;49.848;9.620;2022-12-31T07:54:22;99320.50;;;17.38;60.69
61742;BME280;47650;49.848;9.620;2022-12-31T07:56:48;99314.25;;;17.02;61.69
61742;BME280;47650;49.848;9.620;2022-12-31T08:01:52;99312.13;;;16.91;62.08
61742;BME280;47650;49.848;9.620;2022-12-31T08:04:33;99297.88;;;16.84;61.96
61742;BME280;47650;49.848;9.620;2022-12-31T08:07:32;99309.16;;;16.64;63.04
61742;BME280;47650;49.848;9.620;2022-12-31T08:10:37;99328.28;;;16.83;62.77
61742;BME280;47650;49.848;9.620;2022-12-31T08:13:09;99320.91;;;17.06;62.02
61742;BME280;47650;49.848;9.620;2022-12-31T08:15:37;99328.31;;;17.04;62.20
61742;BME280;47650;49.848;9.620;2022-12-31T08:18:03;99329.50;;;17.30;61.43
61742;BME280;47650;49.848;9.620;2022-12-31T08:20:29;99338.47;;;17.16;61.54
61742;BME280;47650;49.848;9.620;2022-12-31T08:26:44;99340.63;;;17.27;61.14
61742;BME280;47650;49.848;9.620;2022-12-31T08:37:54;99382.25;;;17.29;61.11
61742;BME280;47650;49.848;9.620;2022-12-31T08:43:17;99385.63;;;17.73;60.09
61742;BME280;47650;49.848;9.620;2022-12-31T08:45:51;99388.41;;;17.52;60.33
61742;BME280;47650;49.848;9.620;2022-12-31T08:48:24;99400.13;;;17.79;59.67
61742;BME280;47650;49.848;9.620;2022-12-31T08:50:54;99388.34;;;18.15;58.37
61742;BME280;47650;49.848;9.620;2022-12-31T08:53:19;99400.66;;;17.67;59.68
61742;BME280;47650;49.848;9.620;2022-12-31T08:55:46;99368.38;;;17.82;58.48
61742;BME280;47650;49.848;9.620;2022-12-31T09:01:18;99431.41;;;17.15;61.44
61742;BME280;47650;49.848;9.620;2022-12-31T09:04:00;99421.69;;;17.36;60.76
61742;BME280;47650;49.848;9.620;2022-12-31T09:06:35;99422.63;;;17.50;59.79
61742;BME280;47650;49.848;9.620;2022-12-31T09:11:57;99392.78;;;17.31;59.91
61742;BME280;47650;49.848;9.620;2022-12-31T09:14:40;99428.78;;;18.07;57.98
61742;BME280;47650;49.848;9.620;2022-12-31T09:19:57;99379.47;;;17.73;58.21
61742;BME280;47650;49.848;9.620;2022-12-31T09:22:23;99415.09;;;17.95;58.17
61742;BME280;47650;49.848;9.620;2022-12-31T09:24:55;99411.13;;;18.26;57.21
61742;BME280;47650;49.848;9.620;2022-12-31T09:27:29;99412.63;;;18.41;56.59
61742;BME280;47650;49.848;9.620;2022-12-31T09:30:06;99404.56;;;18.35;56.67
61742;BME280;47650;49.848;9.620;2022-12-31T09:32:55;99413.41;;;18.97;54.85
61742;BME280;47650;49.848;9.620;2022-12-31T09:35:44;99413.06;;;18.45;55.97
61742;BME280;47650;49.848;9.620;2022-12-31T09:41:15;99412.81;;;19.02;54.56
61742;BME280;47650;49.848;9.620;2022-12-31T09:44:00;99413.00;;;19.13;53.94
61742;BME280;47650;49.848;9.620;2022-12-31T09:49:45;99414.25;;;19.38;52.71
61742;BME280;47650;49.848;9.620;2022-12-31T09:52:29;99435.69;;;18.91;54.74
61742;BME280;47650;49.848;9.620;2022-12-31T10:00:47;99421.56;;;18.62;55.20
61742;BME280;47650;49.848;9.620;2022-12-31T10:09:41;99430.19;;;19.19;53.81
61742;BME280;47650;49.848;9.620;2022-12-31T10:14:55;99426.63;;;19.12;54.13
61742;BME280;47650;49.848;9.620;2022-12-31T10:20:44;99400.41;;;18.39;55.13
61742;BME280;47650;49.848;9.620;2022-12-31T10:29:12;99427.44;;;19.86;51.28
61742;BME280;47650;49.848;9.620;2022-12-31T10:31:47;99416.03;;;20.04;51.17
61742;BME280;47650;49.848;9.620;2022-12-31T10:34:25;99417.13;;;19.69;51.36
61742;BME280;47650;49.848;9.620;2022-12-31T10:37:02;99407.91;;;20.10;50.81
61742;BME280;47650;49.848;9.620;2022-12-31T10:39:36;99399.09;;;21.12;47.90
61742;BME280;47650;49.848;9.620;2022-12-31T10:48:18;99417.44;;;20.20;48.97
61742;BME280;47650;49.848;9.620;2022-12-31T10:54:06;99407.59;;;21.09;46.69
61742;BME280;47650;49.848;9.620;2022-12-31T10:57:01;99410.44;;;21.21;47.02
61742;BME280;47650;49.848;9.620;2022-12-31T11:00:16;99398.78;;;20.70;47.47
61742;BME280;47650;49.848;9.620;2022-12-31T11:03:07;99424.19;;;20.81;47.80
61742;BME280;47650;49.848;9.620;2022-12-31T11:11:33;99432.00;;;21.21;46.26
61742;BME280;47650;49.848;9.620;2022-12-31T11:17:05;99409.38;;;22.09;44.40
61742;BME280;47650;49.848;9.620;2022-12-31T11:22:25;99407.75;;;22.76;43.19
61742;BME280;47650;49.848;9.620;2022-12-31T11:31:10;99410.66;;;22.25;42.95
61742;BME280;47650;49.848;9.620;2022-12-31T11:36:23;99410.78;;;22.49;42.82
61742;BME280;47650;49.848;9.620;2022-12-31T11:38:52;99403.19;;;23.30;41.07
61742;BME280;47650;49.848;9.620;2022-12-31T11:44:17;99413.59;;;22.72;42.30
61742;BME280;47650;49.848;9.620;2022-12-31T11:49:33;99433.00;;;21.95;43.83
61742;BME280;47650;49.848;9.620;2022-12-31T11:54:56;99436.59;;;20.89;46.36
61742;BME280;47650;49.848;9.620;2022-12-31T11:57:36;99448.69;;;21.36;44.62
61742;BME280;47650;49.848;9.620;2022-12-31T12:00:13;99443.16;;;21.56;45.12
61742;BME280;47650;49.848;9.620;2022-12-31T12:02:52;99443.44;;;21.48;45.41
61742;BME280;47650;49.848;9.620;2022-12-31T12:05:23;99444.19;;;20.66;47.13
61742;BME280;47650;49.848;9.620;2022-12-31T12:07:49;99444.53;;;21.09;46.22
61742;BME280;47650;49.848;9.620;2022-12-31T12:10:21;99440.88;;;20.64;47.15
61742;BME280;47650;49.848;9.620;2022-12-31T12:12:48;99421.25;;;19.79;48.71
61742;BME280;47650;49.848;9.620;2022-12-31T12:15:33;99442.28;;;20.08;48.62
61742;BME280;47650;49.848;9.620;2022-12-31T12:18:05;99402.41;;;19.65;48.89
61742;BME280;47650;49.848;9.620;2022-12-31T12:20:36;99418.34;;;19.73;49.46
61742;BME280;47650;49.848;9.620;2022-12-31T12:23:19;99436.66;;;20.23;48.61
61742;BME280;47650;49.848;9.620;2022-12-31T12:25:50;99410.94;;;19.09;50.63
61742;BME280;47650;49.848;9.620;2022-12-31T12:28:22;99430.97;;;19.66;50.38
61742;BME280;47650;49.848;9.620;2022-12-31T12:31:04;99423.72;;;19.67;49.63
61742;BME280;47650;49.848;9.620;2022-12-31T12:33:40;99392.13;;;19.49;49.85
61742;BME280;47650;49.848;9.620;2022-12-31T12:36:08;99416.00;;;20.10;49.15
61742;BME280;47650;49.848;9.620;2022-12-31T12:38:34;99388.16;;;19.85;48.96
61742;BME280;47650;49.848;9.620;2022-12-31T12:41:02;99387.34;;;20.75;47.21
61742;BME280;47650;49.848;9.620;2022-12-31T12:43:33;99404.69;;;22.05;44.08
61742;BME280;47650;49.848;9.620;2022-12-31T12:46:01;99387.91;;;23.24;41.39
61742;BME280;47650;49.848;9.620;2022-12-31T12:48:37;99384.78;;;22.66;42.54
61742;BME280;47650;49.848;9.620;2022-12-31T12:57:33;99407.38;;;20.85;46.22
61742;BME280;47650;49.848;9.620;2022-12-31T13:03:14;99389.63;;;22.46;43.25
61742;BME280;47650;49.848;9.620;2022-12-31T13:11:26;99381.16;;;22.42;42.09
61742;BME280;47650;49.848;9.620;2022-12-31T13:19:40;99392.41;;;21.21;44.34
61742;BME280;47650;49.848;9.620;2022-12-31T13:22:18;99391.56;;;20.96;45.30
61742;BME280;47650;49.848;9.620;2022-12-31T13:24:59;99405.13;;;20.82;45.59
61742;BME280;47650;49.848;9.620;2022-12-31T13:27:43;99398.16;;;20.61;45.89
61742;BME280;47650;49.848;9.620;2022-12-31T13:30:29;99392.78;;;20.61;46.37
61742;BME280;47650;49.848;9.620;2022-12-31T13:33:00;99391.03;;;20.80;45.54
61742;BME280;47650;49.848;9.620;2022-12-31T13:35:30;99389.88;;;20.70;45.91
61742;BME280;47650;49.848;9.620;2022-12-31T13:38:01;99368.97;;;20.20;46.61
61742;BME280;47650;49.848;9.620;2022-12-31T13:41:03;99394.13;;;20.45;46.77
61742;BME280;47650;49.848;9.620;2022-12-31T13:43:44;99390.56;;;20.52;45.92
61742;BME280;47650;49.848;9.620;2022-12-31T13:46:35;99388.00;;;20.25;46.31
61742;BME280;47650;49.848;9.620;2022-12-31T13:49:55;99390.59;;;19.93;47.67
61742;BME280;47650;49.848;9.620;2022-12-31T13:52:37;99387.66;;;20.01;47.32
61742;BME280;47650;49.848;9.620;2022-12-31T14:00:44;99397.25;;;19.70;47.87
61742;BME280;47650;49.848;9.620;2022-12-31T14:03:17;99395.00;;;19.27;48.60
61742;BME280;47650;49.848;9.620;2022-12-31T14:06:01;99412.19;;;19.40;48.19
61742;BME280;47650;49.848;9.620;2022-12-31T14:08:28;99398.53;;;19.34;48.49
61742;BME280;47650;49.848;9.620;2022-12-31T14:10:59;99401.44;;;19.13;49.57
61742;BME280;47650;49.848;9.620;2022-12-31T14:16:30;99414.88;;;19.20;49.26
61742;BME280;47650;49.848;9.620;2022-12-31T14:24:36;99391.63;;;18.72;49.83
61742;BME280;47650;49.848;9.620;2022-12-31T14:27:12;99415.88;;;18.85;50.16
61742;BME280;47650;49.848;9.620;2022-12-31T14:29:50;99423.63;;;18.67;50.36
61742;BME280;47650;49.848;9.620;2022-12-31T14:32:49;99415.75;;;18.45;50.91
61742;BME280;47650;49.848;9.620;2022-12-31T14:41:21;99403.31;;;18.37;50.93
61742;BME280;47650;49.848;9.620;2022-12-31T14:50:09;99400.63;;;18.31;51.00
61742;BME280;47650;49.848;9.620;2022-12-31T14:57:42;99404.41;;;18.01;51.75
61742;BME280;47650;49.848;9.620;2022-12-31T15:02:51;99405.16;;;18.37;50.75
61742;BME280;47650;49.848;9.620;2022-12-31T15:05:20;99402.84;;;18.20;51.19
61742;BME280;47650;49.848;9.620;2022-12-31T15:07:55;99407.13;;;18.08;51.29
61742;BME280;47650;49.848;9.620;2022-12-31T15:10:38;99406.50;;;18.13;51.21
61742;BME280;47650;49.848;9.620;2022-12-31T15:24:00;99426.59;;;17.89;51.87
61742;BME280;47650;49.848;9.620;2022-12-31T15:26:29;99427.03;;;17.92;51.94
61742;BME280;47650;49.848;9.620;2022-12-31T15:29:07;99429.13;;;17.97;51.62
61742;BME280;47650;49.848;9.620;2022-12-31T15:31:44;99436.16;;;17.98;51.77
61742;BME280;47650;49.848;9.620;2022-12-31T15:34:40;99445.03;;;17.70;52.58
61742;BME280;47650;49.848;9.620;2022-12-31T15:37:27;99450.56;;;17.40;53.16
61742;BME280;47650;49.848;9.620;2022-12-31T15:42:39;99451.91;;;17.51;52.96
61742;BME280;47650;49.848;9.620;2022-12-31T15:45:13;99437.41;;;17.45;52.76
61742;BME280;47650;49.848;9.620;2022-12-31T15:47:49;99441.72;;;17.40;52.89
61742;BME280;47650;49.848;9.620;2022-12-31T15:50:19;99444.16;;;17.63;52.55
61742;BME280;47650;49.848;9.620;2022-12-31T15:52:52;99447.44;;;17.58;52.44
61742;BME280;47650;49.848;9.620;2022-12-31T15:55:26;99457.53;;;17.35;53.27
61742;BME280;47650;49.848;9.620;2022-12-31T15:57:59;99449.75;;;17.40;53.10
61742;BME280;47650;49.848;9.620;2022-12-31T16:00:35;99449.56;;;17.41;52.88
61742;BME280;47650;49.848;9.620;2022-12-31T16:03:18;99454.72;;;17.43;52.93
61742;BME280;47650;49.848;9.620;2022-12-31T16:05:45;99457.31;;;17.58;52.67
61742;BME280;47650;49.848;9.620;2022-12-31T16:08:18;99457.97;;;17.60;52.39
61742;BME280;47650;49.848;9.620;2022-12-31T16:10:44;99458.03;;;17.45;52.75
61742;BME280;47650;49.848;9.620;2022-12-31T16:13:17;99463.72;;;17.35;53.01
61742;BME280;47650;49.848;9.620;2022-12-31T16:15:48;99456.66;;;17.27;53.00
61742;BME280;47650;49.848;9.620;2022-12-31T16:18:16;99463.78;;;17.42;52.64
61742;BME280;47650;49.848;9.620;2022-12-31T16:20:44;99456.34;;;17.37;52.87
61742;BME280;47650;49.848;9.620;2022-12-31T16:23:23;99455.06;;;17.33;52.91
61742;BME280;47650;49.848;9.620;2022-12-31T16:25:51;99465.44;;;17.43;52.57
61742;BME280;47650;49.848;9.620;2022-12-31T16:28:19;99452.00;;;17.36;52.84
61742;BME280;47650;49.848;9.620;2022-12-31T16:30:58;99431.78;;;17.12;53.08
61742;BME280;47650;49.848;9.620;2022-12-31T16:33:24;99421.06;;;17.12;52.81
61742;BME280;47650;49.848;9.620;2022-12-31T16:35:55;99455.13;;;17.40;52.66
61742;BME280;47650;49.848;9.620;2022-12-31T16:38:22;99450.31;;;17.35;52.88